BCS3164 ENZV-ENBR
Flight info
| Callsign | BCS3164 |
|---|---|
| Flight time | N/A |
| Altitude | 14000 |
| Route | ALUVA |
| Aircraft | B738/M-SDE3FGHIJ1RWY/LB2 |
Departure
| Time | 2026-04-27 15:57 |
|---|---|
| Airport | Stavanger Airport, Sola (ENZV) |
Arrival
| Time | N/A |
|---|---|
| Airport | Bergen Airport, Flesland (ENBR) |
| Time | Latitude | Longitude | Altitude | Speed | Heading |
|---|---|---|---|---|---|
| 2026-04-27 15:20 | 58.88602 | 5.62712 | 24 ft | 0 kts | 254° |
| 2026-04-27 15:45 | 58.88604 | 5.62723 | 24 ft | 4 kts | 251° |
| 2026-04-27 15:45 | 58.88616 | 5.62764 | 25 ft | 4 kts | 206° |
| 2026-04-27 15:46 | 58.88634 | 5.62765 | 31 ft | 2 kts | 136° |
| 2026-04-27 15:46 | 58.88635 | 5.62763 | 26 ft | 2 kts | 135° |
| 2026-04-27 15:49 | 58.88634 | 5.62766 | 30 ft | 2 kts | 135° |
| 2026-04-27 15:50 | 58.88598 | 5.62834 | 28 ft | 10 kts | 135° |
| 2026-04-27 15:50 | 58.88533 | 5.62933 | 25 ft | 13 kts | 138° |
| 2026-04-27 15:50 | 58.88469 | 5.63051 | 26 ft | 12 kts | 136° |
| 2026-04-27 15:50 | 58.88406 | 5.63169 | 26 ft | 13 kts | 136° |
| 2026-04-27 15:51 | 58.88304 | 5.63268 | 29 ft | 17 kts | 155° |
| 2026-04-27 15:51 | 58.88245 | 5.63427 | 29 ft | 15 kts | 166° |
| 2026-04-27 15:51 | 58.88126 | 5.63433 | 29 ft | 22 kts | 178° |
| 2026-04-27 15:51 | 58.87964 | 5.63389 | 31 ft | 24 kts | 202° |
| 2026-04-27 15:52 | 58.87819 | 5.63290 | 30 ft | 20 kts | 186° |
| 2026-04-27 15:52 | 58.87655 | 5.63295 | 30 ft | 27 kts | 179° |
| 2026-04-27 15:52 | 58.87470 | 5.63298 | 30 ft | 26 kts | 180° |
| 2026-04-27 15:52 | 58.87296 | 5.63303 | 30 ft | 24 kts | 179° |
| 2026-04-27 15:53 | 58.87135 | 5.63308 | 31 ft | 23 kts | 179° |
| 2026-04-27 15:53 | 58.86990 | 5.63389 | 31 ft | 21 kts | 142° |
| 2026-04-27 15:53 | 58.86951 | 5.63620 | 35 ft | 16 kts | 90° |
| 2026-04-27 15:53 | 58.86956 | 5.63790 | 36 ft | 9 kts | 67° |
| 2026-04-27 15:54 | 58.86990 | 5.63807 | 35 ft | 2 kts | 358° |
| 2026-04-27 15:54 | 58.86992 | 5.63807 | 35 ft | 0 kts | 358° |
| 2026-04-27 15:56 | 58.87065 | 5.63802 | 34 ft | 37 kts | 358° |
| 2026-04-27 15:57 | 58.87577 | 5.63784 | 33 ft | 108 kts | 359° |
| 2026-04-27 15:57 | 58.88534 | 5.63751 | 37 ft | 164 kts | 359° |
| 2026-04-27 15:57 | 58.89679 | 5.63728 | 779 ft | 162 kts | 354° |
| 2026-04-27 15:57 | 58.90797 | 5.63653 | 1559 ft | 166 kts | 358° |
| 2026-04-27 15:58 | 58.91946 | 5.63639 | 2270 ft | 164 kts | 358° |
| 2026-04-27 15:58 | 58.93092 | 5.63612 | 2972 ft | 166 kts | 360° |
| 2026-04-27 15:58 | 58.94305 | 5.63576 | 3428 ft | 185 kts | 0° |
| 2026-04-27 15:58 | 58.95670 | 5.63552 | 3703 ft | 207 kts | 0° |
| 2026-04-27 15:59 | 58.97211 | 5.63473 | 3852 ft | 237 kts | 359° |
| 2026-04-27 15:59 | 58.98350 | 5.63407 | 3974 ft | 256 kts | 0° |
| 2026-04-27 15:59 | 59.00159 | 5.63327 | 4621 ft | 262 kts | 0° |
| 2026-04-27 15:59 | 59.02001 | 5.63257 | 5390 ft | 265 kts | 360° |
| 2026-04-27 16:00 | 59.03871 | 5.63053 | 6058 ft | 270 kts | 355° |
| 2026-04-27 16:00 | 59.05710 | 5.62492 | 6981 ft | 268 kts | 351° |
| 2026-04-27 16:00 | 59.06314 | 5.62295 | 7070 ft | 274 kts | 352° |